CPX661 Details

Departure: Tampa International Airport (KTPA)
Arrival: Miami International Airport (KMIA)
Route: GANDY8 SABEE CYY CYY9


Current Weather Information
KTPA 212153Z 25006KT 10SM SCT060 32/21 A2991 RMK AO2 SLP127 T03170206 $
KMIA 212153Z 11011KT 10SM FEW044 FEW060 FEW250 31/19 A2992 RMK AO2 SLP133 T03060189